Bookmark and Share
Track history (hours):
 

Carnival Pride

Operator: Carnival Cruise Lines

Last reported at 2014-Apr-21 09:10 UTC. Time now 2014-Apr-21 14:43 UTC.
Position N 36°41' W 075°41'.

Type: Ship. MMSI: 354215000.

NotesDate/timePositionNaut miles runAvg speedWind from/ knotsBaromVisibWave heightAir tempDewpointWater temp
2014-Apr-21 09:10N 36°41' W 075°41'711.8
2014-Apr-21 08:33N 36°47' W 075°45'1010.0
2014-Apr-21 07:33N 36°54' W 075°55'1212.0
2014-Apr-21 06:34N 37°03' W 076°04'1514.7
2014-Apr-21 05:33N 37°17' W 076°07'3715.7
2014-Apr-21 03:12N 37°54' W 076°09'1117.2
2014-Apr-21 02:33N 38°05' W 076°13'3517.0
2014-Apr-21 00:31N 38°38' W 076°25'1616.8
2014-Apr-20 23:33N 38°54' W 076°24'1414.5
2014-Apr-20 22:33N 39°09' W 076°25'1010.4
2014-Apr-20 21:33N 39°15' W 076°35'1 0.8
2014-Apr-20 20:33N 39°16' W 076°36'0 0.0
2014-Apr-20 19:33N 39°16' W 076°36'0 0.0
2014-Apr-20 18:32N 39°16' W 076°36'0 0.0
2014-Apr-20 17:32N 39°16' W 076°36'0 0.0
2014-Apr-20 16:32N 39°16' W 076°36'0 0.0
2014-Apr-20 15:31N 39°16' W 076°36'0 0.0
2014-Apr-20 14:33N 39°16' W 076°36'0 0.0
2014-Apr-20 13:33N 39°16' W 076°36'0 0.3
2014-Apr-20 12:33N 39°16' W 076°36'1010.0
2014-Apr-20 11:34N 39°10' W 076°25'1514.8
2014-Apr-20 10:33N 38°55' W 076°24'1717.3
2014-Apr-20 09:33N 38°38' W 076°25'1717.1
2014-Apr-20 08:33N 38°21' W 076°19'  
2014-Apr-13 22:33N 39°12' W 076°30'6 5.8
2014-Apr-13 21:33N 39°16' W 076°36'0 0.0
2014-Apr-13 20:32N 39°16' W 076°36'0 0.0
2014-Apr-13 19:32N 39°16' W 076°36'0 0.0
2014-Apr-13 18:31N 39°16' W 076°36'0 0.0
2014-Apr-13 17:31N 39°16' W 076°36'0 0.0
2014-Apr-13 16:33N 39°16' W 076°36'0 0.0
2014-Apr-13 15:33N 39°16' W 076°36'0 0.0
2014-Apr-13 14:33N 39°16' W 076°36'0 0.0
2014-Apr-13 13:32N 39°16' W 076°36'1 0.8
2014-Apr-13 12:33N 39°15' W 076°35'7 7.3
2014-Apr-13 11:33N 39°11' W 076°27'1111.4
2014-Apr-13 10:34N 39°00' W 076°23'1716.7
2014-Apr-13 09:33N 38°44' W 076°26'6817.0
2014-Apr-13 05:34N 37°38' W 076°07'1715.7
2014-Apr-13 04:28N 37°21' W 076°05'1516.5
2014-Apr-13 03:33N 37°06' W 076°07'1313.4
2014-Apr-13 02:33N 36°56' W 075°56'11 9.8
2014-Apr-13 01:29N 36°49' W 075°45'  

Dump ship's entire track history

sailing weather and tide predictions

Carnival Pride — H3VU — position and weather